Time,TemperatureF,DewpointF,PressureIn,WindDirection,WindDirectionDegrees,WindSpeedMPH,WindSpeedGustMPH,Humidity,HourlyPrecipIn,Conditions,Clouds,dailyrainin,SoftwareType,DateUTC
2013-06-05 00:01:00,63.1,51.2,29.98,NE,45,0.0,0.0,65,0.00,CLR,SKC,0.00,WeatherDisplay:10.37,2013-06-05 04:01:00,
2013-06-05 00:02:00,63.1,51.2,29.98,ENE,68,0.0,0.0,65,0.00,CLR,SKC,0.00,WeatherDisplay:10.37,2013-06-05 04:02:00,
2013-06-05 00:07:00,63.1,51.2,29.99,ENE,68,0.0,0.0,65,0.00,CLR,SKC,0.00,WeatherDisplay:10.37,2013-06-05 04:07:00,
2013-06-05 00:12:00,63.1,51.2,29.99,ENE,68,0.0,0.0,65,0.00,CLR,SKC,0.00,WeatherDisplay:10.37,2013-06-05 04:12:00,
2013-06-05 00:17:00,63.1,51.2,29.98,ENE,68,0.0,0.0,65,0.00,CLR,SKC,0.00,WeatherDisplay:10.37,2013-06-05 04:17:00,
2013-06-05 00:22:00,63.0,51.0,29.99,East,90,0.0,0.0,65,0.00,CLR,SKC,0.00,WeatherDisplay:10.37,2013-06-05 04:22:00,
2013-06-05 00:27:00,63.0,51.0,29.99,ENE,68,0.0,0.0,65,0.00,CLR,SKC,0.00,WeatherDisplay:10.37,2013-06-05 04:27:00,
2013-06-05 00:32:00,63.0,51.0,29.99,ENE,68,0.0,0.0,65,0.00,CLR,SKC,0.00,WeatherDisplay:10.37,2013-06-05 04:32:00,
2013-06-05 00:37:00,63.0,51.0,29.98,ESE,112,0.0,0.0,65,0.00,CLR,SKC,0.00,WeatherDisplay:10.37,2013-06-05 04:37:00,
2013-06-05 00:42:00,62.8,50.8,29.98,ESE,112,0.0,0.0,65,0.00,CLR,SKC,0.00,WeatherDisplay:10.37,2013-06-05 04:42:00,
2013-06-05 00:47:00,62.8,51.2,29.98,ESE,112,0.0,0.0,66,0.00,CLR,SKC,0.00,WeatherDisplay:10.37,2013-06-05 04:47:00,
2013-06-05 00:52:00,62.8,51.2,29.98,ESE,112,0.0,0.0,66,0.00,CLR,SKC,0.00,WeatherDisplay:10.37,2013-06-05 04:52:00,
2013-06-05 00:57:00,62.8,51.2,29.98,ESE,112,0.0,0.0,66,0.00,CLR,SKC,0.00,WeatherDisplay:10.37,2013-06-05 04:57:00,
2013-06-05 01:02:00,62.8,51.2,29.98,NE,45,0.1,0.0,66,0.00,CLR,SKC,0.00,WeatherDisplay:10.37,2013-06-05 05:02:00,
2013-06-05 01:07:00,62.6,51.1,29.98,ESE,112,0.1,1.1,66,0.00,CLR,SKC,0.00,WeatherDisplay:10.37,2013-06-05 05:07:00,
2013-06-05 01:12:00,62.4,50.9,29.98,East,90,0.0,0.0,66,0.00,CLR,SKC,0.00,WeatherDisplay:10.37,2013-06-05 05:12:00,
2013-06-05 01:17:00,62.4,50.9,29.98,SE,135,0.4,2.3,66,0.00,CLR,SKC,0.00,WeatherDisplay:10.37,2013-06-05 05:17:00,
2013-06-05 01:22:00,62.4,51.3,29.97,SSE,158,0.1,1.1,67,0.00,CLR,SKC,0.00,WeatherDisplay:10.37,2013-06-05 05:22:00,
2013-06-05 01:27:00,62.4,51.3,29.97,ESE,112,0.2,2.3,67,0.00,CLR,SKC,0.00,WeatherDisplay:10.37,2013-06-05 05:27:00,
2013-06-05 01:32:00,62.4,50.9,29.98,ENE,68,0.0,1.1,66,0.00,CLR,SKC,0.00,WeatherDisplay:10.37,2013-06-05 05:32:00,
2013-06-05 01:37:00,62.4,50.9,29.98,ESE,112,0.0,0.0,66,0.00,CLR,SKC,0.00,WeatherDisplay:10.37,2013-06-05 05:37:00,
2013-06-05 01:42:00,62.4,50.9,29.98,ESE,112,0.6,1.1,66,0.00,CLR,SKC,0.00,WeatherDisplay:10.37,2013-06-05 05:42:00,
2013-06-05 01:47:00,62.2,51.1,29.98,SE,135,0.9,2.3,67,0.00,CLR,SKC,0.00,WeatherDisplay:10.37,2013-06-05 05:47:00,
2013-06-05 01:52:00,62.2,51.1,29.98,SE,135,0.0,0.0,67,0.00,CLR,SKC,0.00,WeatherDisplay:10.37,2013-06-05 05:52:00,
2013-06-05 01:57:00,62.2,50.7,29.98,SSE,158,1.2,4.6,66,0.00,CLR,SKC,0.00,WeatherDisplay:10.37,2013-06-05 05:57:00,
2013-06-05 02:02:00,62.2,50.7,29.98,ESE,112,1.9,3.5,66,0.00,CLR,SKC,0.00,WeatherDisplay:10.37,2013-06-05 06:02:00,
2013-06-05 02:07:00,62.2,50.7,29.98,East,90,0.2,1.1,66,0.00,CLR,SKC,0.00,WeatherDisplay:10.37,2013-06-05 06:07:00,
2013-06-05 02:12:00,62.2,50.7,29.99,ESE,112,0.2,1.1,66,0.00,CLR,SKC,0.00,WeatherDisplay:10.37,2013-06-05 06:12:00,
2013-06-05 02:17:00,62.1,50.6,29.98,East,90,0.1,1.1,66,0.00,CLR,SKC,0.00,WeatherDisplay:10.37,2013-06-05 06:17:00,
2013-06-05 02:22:00,61.9,50.4,29.99,SE,135,0.0,0.0,66,0.00,CLR,SKC,0.00,WeatherDisplay:10.37,2013-06-05 06:22:00,
2013-06-05 02:27:00,61.9,50.4,29.98,East,90,0.0,0.0,66,0.00,CLR,SKC,0.00,WeatherDisplay:10.37,2013-06-05 06:27:00,
2013-06-05 02:32:00,61.7,50.2,29.99,ESE,112,0.5,1.1,66,0.00,CLR,SKC,0.00,WeatherDisplay:10.37,2013-06-05 06:32:00,
2013-06-05 02:37:00,61.5,50.1,29.98,SE,135,0.0,0.0,66,0.00,CLR,SKC,0.00,WeatherDisplay:10.37,2013-06-05 06:37:00,
2013-06-05 02:42:00,61.5,50.5,29.98,ESE,112,1.4,3.5,67,0.00,CLR,SKC,0.00,WeatherDisplay:10.37,2013-06-05 06:42:00,
2013-06-05 02:47:00,61.3,50.3,29.98,ESE,112,3.2,8.1,67,0.00,CLR,SKC,0.00,WeatherDisplay:10.37,2013-06-05 06:47:00,
2013-06-05 02:52:00,61.3,50.3,29.97,ENE,68,0.0,0.0,67,0.00,CLR,SKC,0.00,WeatherDisplay:10.37,2013-06-05 06:52:00,
2013-06-05 02:57:00,61.2,50.1,29.97,SE,135,0.0,2.0,67,0.00,CLR,SKC,0.00,WeatherDisplay:10.37,2013-06-05 06:57:00,
2013-06-05 03:02:00,61.2,50.1,29.97,SSE,158,3.2,8.1,67,0.00,CLR,SKC,0.00,WeatherDisplay:10.37,2013-06-05 07:02:00,
2013-06-05 03:07:00,61.0,49.9,29.97,SE,135,0.0,0.0,67,0.00,CLR,SKC,0.00,WeatherDisplay:10.37,2013-06-05 07:07:00,
2013-06-05 03:12:00,60.8,49.8,29.97,ESE,112,0.0,0.0,67,0.00,CLR,SKC,0.00,WeatherDisplay:10.37,2013-06-05 07:12:00,
2013-06-05 03:17:00,60.6,49.6,29.97,ESE,112,0.1,2.3,67,0.00,CLR,SKC,0.00,WeatherDisplay:10.37,2013-06-05 07:17:00,
2013-06-05 03:22:00,60.6,49.6,29.97,East,90,0.0,0.0,67,0.00,CLR,SKC,0.00,WeatherDisplay:10.37,2013-06-05 07:22:00,
2013-06-05 03:27:00,60.4,49.4,29.97,SSW,202,0.0,0.0,67,0.00,CLR,SKC,0.00,WeatherDisplay:10.37,2013-06-05 07:27:00,
2013-06-05 03:32:00,60.4,49.4,29.97,ENE,68,0.5,3.5,67,0.00,CLR,SKC,0.00,WeatherDisplay:10.37,2013-06-05 07:32:00,
2013-06-05 03:37:00,60.4,49.4,29.97,NE,45,0.0,0.0,67,0.00,CLR,SKC,0.00,WeatherDisplay:10.37,2013-06-05 07:37:00,
2013-06-05 03:42:00,60.1,49.1,29.97,East,90,0.0,0.0,67,0.00,CLR,SKC,0.00,WeatherDisplay:10.37,2013-06-05 07:42:00,
2013-06-05 03:47:00,60.1,49.5,29.97,SE,135,0.0,0.0,68,0.00,CLR,SKC,0.00,WeatherDisplay:10.37,2013-06-05 07:47:00,
2013-06-05 03:52:00,59.9,49.3,29.97,East,90,0.6,3.4,68,0.00,CLR,SKC,0.00,WeatherDisplay:10.37,2013-06-05 07:52:00,
2013-06-05 03:57:00,59.9,49.3,29.97,ESE,112,0.0,0.0,68,0.00,CLR,SKC,0.00,WeatherDisplay:10.37,2013-06-05 07:57:00,
2013-06-05 04:02:00,59.7,49.5,29.97,SE,135,0.0,0.0,69,0.00,CLR,SKC,0.00,WeatherDisplay:10.37,2013-06-05 08:02:00,
2013-06-05 04:07:00,59.5,49.4,29.97,ESE,112,0.2,3.5,69,0.00,CLR,SKC,0.00,WeatherDisplay:10.37,2013-06-05 08:07:00,
2013-06-05 04:12:00,59.4,49.2,29.97,ESE,112,0.0,0.0,69,0.00,CLR,SKC,0.00,WeatherDisplay:10.37,2013-06-05 08:12:00,
2013-06-05 04:17:00,59.4,49.2,29.97,ESE,112,0.0,0.0,69,0.00,CLR,SKC,0.00,WeatherDisplay:10.37,2013-06-05 08:17:00,
2013-06-05 04:22:00,59.2,49.0,29.97,ESE,112,0.0,0.0,69,0.00,CLR,SKC,0.00,WeatherDisplay:10.37,2013-06-05 08:22:00,
2013-06-05 04:27:00,59.0,48.8,29.97,ESE,112,0.0,0.0,69,0.00,CLR,SKC,0.00,WeatherDisplay:10.37,2013-06-05 08:27:00,
2013-06-05 04:32:00,58.8,48.7,29.97,ESE,112,0.0,0.0,69,0.00,CLR,SKC,0.00,WeatherDisplay:10.37,2013-06-05 08:32:00,
2013-06-05 04:37:00,58.6,48.5,29.97,ESE,112,0.0,0.0,69,0.00,CLR,SKC,0.00,WeatherDisplay:10.37,2013-06-05 08:37:00,
2013-06-05 04:42:00,58.3,48.2,29.98,ESE,112,0.0,0.0,69,0.00,CLR,SKC,0.00,WeatherDisplay:10.37,2013-06-05 08:42:00,
2013-06-05 04:47:00,58.1,48.4,29.98,ESE,112,0.0,0.0,70,0.00,CLR,SKC,0.00,WeatherDisplay:10.37,2013-06-05 08:47:00,
2013-06-05 04:52:00,57.9,48.2,29.98,ESE,112,0.0,0.0,70,0.00,CLR,SKC,0.00,WeatherDisplay:10.37,2013-06-05 08:52:00,
2013-06-05 04:57:00,57.9,48.6,29.98,East,90,0.0,0.0,71,0.00,CLR,SKC,0.00,WeatherDisplay:10.37,2013-06-05 08:57:00,
2013-06-05 05:02:00,57.7,48.4,29.97,East,90,0.0,0.0,71,0.00,CLR,SKC,0.00,WeatherDisplay:10.37,2013-06-05 09:02:00,
2013-06-05 05:07:00,57.6,48.2,29.97,East,90,0.0,0.0,71,0.00,CLR,SKC,0.00,WeatherDisplay:10.37,2013-06-05 09:07:00,
2013-06-05 05:12:00,57.4,48.1,29.98,ENE,68,0.0,0.0,71,0.00,CLR,SKC,0.00,WeatherDisplay:10.37,2013-06-05 09:12:00,
2013-06-05 05:17:00,57.4,48.4,29.98,NE,45,0.0,0.0,72,0.00,CLR,SKC,0.00,WeatherDisplay:10.37,2013-06-05 09:17:00,
2013-06-05 05:22:00,57.4,48.4,29.99,NE,45,0.0,0.0,72,0.00,CLR,SKC,0.00,WeatherDisplay:10.37,2013-06-05 09:22:00,
2013-06-05 05:27:00,57.4,48.4,29.98,NE,45,0.0,0.0,72,0.00,CLR,SKC,0.00,WeatherDisplay:10.37,2013-06-05 09:27:00,
2013-06-05 05:32:00,57.0,48.1,29.99,NE,45,0.0,0.0,72,0.00,CLR,SKC,0.00,WeatherDisplay:10.37,2013-06-05 09:32:00,
2013-06-05 05:37:00,57.0,48.1,29.99,NE,45,0.0,0.0,72,0.00,CLR,SKC,0.00,WeatherDisplay:10.37,2013-06-05 09:37:00,
2013-06-05 05:42:00,57.0,48.1,29.98,NE,45,0.0,0.0,72,0.00,CLR,SKC,0.00,WeatherDisplay:10.37,2013-06-05 09:42:00,
2013-06-05 05:47:00,57.0,48.1,29.99,NE,45,0.0,0.0,72,0.00,CLR,SKC,0.00,WeatherDisplay:10.37,2013-06-05 09:47:00,
2013-06-05 05:52:00,57.0,48.1,29.98,NE,45,0.0,0.0,72,0.00,CLR,SKC,0.00,WeatherDisplay:10.37,2013-06-05 09:52:00,
2013-06-05 05:57:00,57.0,48.1,29.99,NE,45,0.0,0.0,72,0.00,CLR,SKC,0.00,WeatherDisplay:10.37,2013-06-05 09:57:00,
2013-06-05 06:02:00,56.8,47.9,29.99,NE,45,0.0,0.0,72,0.00,CLR,SKC,0.00,WeatherDisplay:10.37,2013-06-05 10:02:00,
2013-06-05 06:07:00,56.8,47.9,29.98,ENE,68,0.0,0.0,72,0.00,CLR,SKC,0.00,WeatherDisplay:10.37,2013-06-05 10:07:00,
2013-06-05 06:12:00,56.5,47.9,29.99,NE,45,0.0,0.0,73,0.00,CLR,SKC,0.00,WeatherDisplay:10.37,2013-06-05 10:12:00,
2013-06-05 06:17:00,56.5,47.9,29.99,ENE,68,0.0,0.0,73,0.00,CLR,SKC,0.00,WeatherDisplay:10.37,2013-06-05 10:17:00,
2013-06-05 06:22:00,56.5,47.9,29.99,ENE,68,0.0,0.0,73,0.00,CLR,SKC,0.00,WeatherDisplay:10.37,2013-06-05 10:22:00,
2013-06-05 06:27:00,56.3,47.8,30.00,NE,45,0.0,0.0,73,0.00,CLR,SKC,0.00,WeatherDisplay:10.37,2013-06-05 10:27:00,
2013-06-05 06:32:00,56.3,47.8,30.00,NE,45,0.0,0.0,73,0.00,CLR,SKC,0.00,WeatherDisplay:10.37,2013-06-05 10:32:00,
2013-06-05 06:37:00,56.5,47.9,30.00,NE,45,0.0,0.0,73,0.00,CLR,SKC,0.00,WeatherDisplay:10.37,2013-06-05 10:37:00,
2013-06-05 06:42:00,56.5,47.9,30.00,NE,45,0.0,0.0,73,0.00,CLR,SKC,0.00,WeatherDisplay:10.37,2013-06-05 10:42:00,
2013-06-05 06:47:00,56.5,47.9,30.00,NE,45,0.0,0.0,73,0.00,CLR,SKC,0.00,WeatherDisplay:10.37,2013-06-05 10:47:00,
2013-06-05 06:52:00,56.8,48.3,30.00,NE,45,0.0,0.0,73,0.00,CLR,SKC,0.00,WeatherDisplay:10.37,2013-06-05 10:52:00,
2013-06-05 06:57:00,56.8,48.3,30.00,ENE,68,0.0,0.0,73,0.00,CLR,SKC,0.00,WeatherDisplay:10.37,2013-06-05 10:57:00,
2013-06-05 07:02:00,56.8,48.3,30.00,East,90,0.0,0.0,73,0.00,CLR,SKC,0.00,WeatherDisplay:10.37,2013-06-05 11:02:00,
2013-06-05 07:07:00,56.8,48.3,30.00,NE,45,0.8,2.3,73,0.00,CLR,SKC,0.00,WeatherDisplay:10.37,2013-06-05 11:07:00,
2013-06-05 07:13:00,57.0,48.8,30.00,NNW,338,0.0,0.0,74,0.00,CLR,SKC,0.00,WeatherDisplay:10.37,2013-06-05 11:13:00,
2013-06-05 07:18:00,57.4,49.2,30.00,East,90,0.0,0.0,74,0.00,CLR,SKC,0.00,WeatherDisplay:10.37,2013-06-05 11:18:00,
2013-06-05 07:23:00,57.6,49.0,30.00,SE,135,0.2,2.3,73,0.00,CLR,SKC,0.00,WeatherDisplay:10.37,2013-06-05 11:23:00,
2013-06-05 07:28:00,57.9,49.3,30.00,East,90,0.3,0.0,73,0.00,CLR,SKC,0.00,WeatherDisplay:10.37,2013-06-05 11:28:00,
2013-06-05 07:33:00,58.3,49.7,30.01,East,90,0.0,1.1,73,0.00,CLR,SKC,0.00,WeatherDisplay:10.37,2013-06-05 11:33:00,
2013-06-05 07:38:00,59.2,50.2,30.01,ESE,112,0.0,0.0,72,0.00,CLR,SKC,0.00,WeatherDisplay:10.37,2013-06-05 11:38:00,
2013-06-05 07:43:00,60.1,51.0,30.00,East,90,1.8,3.5,72,0.00,CLR,SKC,0.00,WeatherDisplay:10.37,2013-06-05 11:43:00,
2013-06-05 07:48:00,60.8,51.3,30.00,East,90,0.0,0.0,71,0.00,CLR,SKC,0.00,WeatherDisplay:10.37,2013-06-05 11:48:00,
2013-06-05 07:53:00,61.2,51.3,30.00,East,90,0.0,0.0,70,0.00,CLR,SKC,0.00,WeatherDisplay:10.37,2013-06-05 11:53:00,
2013-06-05 07:58:00,61.3,51.1,30.01,East,90,0.1,0.0,69,0.00,CLR,SKC,0.00,WeatherDisplay:10.37,2013-06-05 11:58:00,
2013-06-05 08:03:00,61.3,51.5,30.00,ESE,112,0.0,0.0,70,0.00,CLR,SKC,0.00,WeatherDisplay:10.37,2013-06-05 12:03:00,
2013-06-05 08:08:00,61.5,51.3,30.00,East,90,0.5,2.3,69,0.00,CLR,SKC,0.00,WeatherDisplay:10.37,2013-06-05 12:08:00,
2013-06-05 08:13:00,61.5,51.3,30.00,NE,45,0.0,0.0,69,0.00,CLR,SKC,0.00,WeatherDisplay:10.37,2013-06-05 12:13:00,
2013-06-05 08:18:00,61.5,51.3,29.99,East,90,0.0,0.0,69,0.00,CLR,SKC,0.00,WeatherDisplay:10.37,2013-06-05 12:18:00,
2013-06-05 08:23:00,61.5,51.3,29.99,NE,45,1.3,1.3,69,0.00,CLR,SKC,0.00,WeatherDisplay:10.37,2013-06-05 12:23:00,
2013-06-05 08:28:00,61.5,51.3,29.99,ESE,112,0.0,2.3,69,0.00,CLR,SKC,0.00,WeatherDisplay:10.37,2013-06-05 12:28:00,
2013-06-05 08:33:00,61.9,51.2,29.99,ENE,68,0.7,1.1,68,0.00,CLR,SKC,0.00,WeatherDisplay:10.37,2013-06-05 12:33:00,
2013-06-05 08:38:00,62.1,51.4,29.98,WNW,292,0.9,2.3,68,0.00,CLR,SKC,0.00,WeatherDisplay:10.37,2013-06-05 12:38:00,
2013-06-05 08:43:00,62.4,51.7,29.99,SE,135,0.1,3.5,68,0.00,CLR,SKC,0.00,WeatherDisplay:10.37,2013-06-05 12:43:00,
2013-06-05 08:48:00,62.4,51.7,29.98,East,90,0.2,2.3,68,0.00,CLR,SKC,0.00,WeatherDisplay:10.37,2013-06-05 12:48:00,
2013-06-05 08:53:00,62.8,51.7,29.99,ESE,112,0.0,2.3,67,0.00,CLR,SKC,0.00,WeatherDisplay:10.37,2013-06-05 12:53:00,
2013-06-05 08:58:00,63.1,52.0,29.98,SE,135,1.3,2.3,67,0.00,CLR,SKC,0.00,WeatherDisplay:10.37,2013-06-05 12:58:00,
2013-06-05 09:03:00,63.3,52.2,29.98,SE,135,0.7,1.1,67,0.00,CLR,SKC,0.00,WeatherDisplay:10.37,2013-06-05 13:03:00,
2013-06-05 09:08:00,63.3,51.8,29.98,East,90,2.1,3.5,66,0.00,CLR,SKC,0.00,WeatherDisplay:10.37,2013-06-05 13:08:00,
2013-06-05 09:13:00,63.5,51.9,29.97,ESE,112,2.6,9.2,66,0.00,CLR,SKC,0.00,WeatherDisplay:10.37,2013-06-05 13:13:00,
2013-06-05 09:18:00,63.7,52.1,29.97,East,90,0.2,1.1,66,0.00,CLR,SKC,0.00,WeatherDisplay:10.37,2013-06-05 13:18:00,
2013-06-05 09:23:00,64.0,52.0,29.97,ESE,112,0.5,4.6,65,0.00,CLR,SKC,0.00,WeatherDisplay:10.37,2013-06-05 13:23:00,
2013-06-05 09:28:00,64.2,52.2,29.97,ESE,112,0.1,1.1,65,0.00,CLR,SKC,0.00,WeatherDisplay:10.37,2013-06-05 13:28:00,
2013-06-05 09:33:00,64.2,52.2,29.97,SE,135,0.5,5.4,65,0.00,CLR,SKC,0.00,WeatherDisplay:10.37,2013-06-05 13:33:00,
2013-06-05 09:38:00,64.6,52.5,29.97,ESE,112,0.7,2.3,65,0.00,CLR,SKC,0.00,WeatherDisplay:10.37,2013-06-05 13:38:00,
2013-06-05 09:43:00,64.9,52.9,29.97,SE,135,0.0,3.5,65,0.00,CLR,SKC,0.00,WeatherDisplay:10.37,2013-06-05 13:43:00,
2013-06-05 09:48:00,65.1,53.1,29.97,ESE,112,0.1,1.1,65,0.00,CLR,SKC,0.00,WeatherDisplay:10.37,2013-06-05 13:48:00,
2013-06-05 09:53:00,65.7,53.1,29.96,SE,135,0.3,1.8,64,0.00,CLR,SKC,0.00,WeatherDisplay:10.37,2013-06-05 13:53:00,
2013-06-05 09:58:00,65.8,52.9,29.96,East,90,1.7,3.5,63,0.00,CLR,SKC,0.00,WeatherDisplay:10.37,2013-06-05 13:58:00,
2013-06-05 10:03:00,66.2,53.2,29.97,ESE,112,0.0,0.0,63,0.00,CLR,SKC,0.00,WeatherDisplay:10.37,2013-06-05 14:03:00,
2013-06-05 10:08:00,66.7,54.2,29.96,SSE,158,2.1,3.5,64,0.00,CLR,SKC,0.00,WeatherDisplay:10.37,2013-06-05 14:08:00,
2013-06-05 10:13:00,67.3,54.3,29.95,NE,45,0.2,1.1,63,0.00,CLR,SKC,0.00,WeatherDisplay:10.37,2013-06-05 14:13:00,
2013-06-05 10:18:00,67.8,54.8,29.95,SE,135,0.0,2.7,63,0.00,CLR,SKC,0.00,WeatherDisplay:10.37,2013-06-05 14:18:00,
2013-06-05 10:23:00,68.4,55.3,29.96,SE,135,0.2,3.5,63,0.00,CLR,SKC,0.00,WeatherDisplay:10.37,2013-06-05 14:23:00,
2013-06-05 10:28:00,69.1,55.5,29.95,SE,135,0.9,3.5,62,0.00,CLR,SKC,0.00,WeatherDisplay:10.37,2013-06-05 14:28:00,
2013-06-05 10:33:00,69.6,56.0,29.95,SW,225,2.2,3.5,62,0.00,CLR,SKC,0.00,WeatherDisplay:10.37,2013-06-05 14:33:00,
2013-06-05 10:38:00,70.3,56.2,29.94,SSE,158,0.2,2.3,61,0.00,CLR,SKC,0.00,WeatherDisplay:10.37,2013-06-05 14:38:00,
2013-06-05 10:43:00,70.9,56.3,29.95,SE,135,0.4,1.1,60,0.00,CLR,SKC,0.00,WeatherDisplay:10.37,2013-06-05 14:43:00,
2013-06-05 10:48:00,71.6,57.0,29.95,NNE,22,0.0,0.0,60,0.00,CLR,SKC,0.00,WeatherDisplay:10.37,2013-06-05 14:48:00,
2013-06-05 10:53:00,72.1,56.5,29.94,SSE,158,1.2,4.7,58,0.00,CLR,SKC,0.00,WeatherDisplay:10.37,2013-06-05 14:53:00,
2013-06-05 10:58:00,72.7,56.6,29.95,East,90,0.6,6.9,57,0.00,CLR,SKC,0.00,WeatherDisplay:10.37,2013-06-05 14:58:00,
2013-06-05 11:03:00,73.2,56.6,29.94,NE,45,0.0,1.1,56,0.00,CLR,SKC,0.00,WeatherDisplay:10.37,2013-06-05 15:03:00,
2013-06-05 11:08:00,73.6,56.4,29.94,South,180,0.2,0.0,55,0.00,CLR,SKC,0.00,WeatherDisplay:10.37,2013-06-05 15:08:00,
2013-06-05 11:13:00,74.1,57.4,29.93,ESE,112,1.9,2.3,56,0.00,CLR,SKC,0.00,WeatherDisplay:10.37,2013-06-05 15:13:00,
2013-06-05 11:18:00,74.5,57.3,29.94,NE,45,0.0,1.1,55,0.00,CLR,SKC,0.00,WeatherDisplay:10.37,2013-06-05 15:18:00,
2013-06-05 11:23:00,75.0,58.3,29.93,South,180,0.1,1.1,56,0.00,CLR,SKC,0.00,WeatherDisplay:10.37,2013-06-05 15:23:00,
2013-06-05 11:28:00,75.4,57.6,29.93,ENE,68,0.0,1.1,54,0.00,CLR,SKC,0.00,WeatherDisplay:10.37,2013-06-05 15:28:00,
2013-06-05 11:33:00,75.9,58.6,29.93,East,90,0.0,0.0,55,0.00,CLR,SKC,0.00,WeatherDisplay:10.37,2013-06-05 15:33:00,
2013-06-05 11:38:00,76.3,57.9,29.93,SE,135,0.5,1.1,53,0.00,CLR,SKC,0.00,WeatherDisplay:10.37,2013-06-05 15:38:00,
2013-06-05 11:43:00,76.6,58.2,29.94,East,90,0.0,2.3,53,0.00,CLR,SKC,0.00,WeatherDisplay:10.37,2013-06-05 15:43:00,
2013-06-05 11:48:00,77.0,58.0,29.94,SE,135,2.7,3.5,52,0.00,CLR,SKC,0.00,WeatherDisplay:10.37,2013-06-05 15:48:00,
2013-06-05 11:53:00,77.4,57.8,29.94,ESE,112,0.0,3.5,51,0.00,CLR,SKC,0.00,WeatherDisplay:10.37,2013-06-05 15:53:00,
2013-06-05 11:58:00,77.5,58.0,29.94,ENE,68,0.0,2.3,51,0.00,CLR,SKC,0.00,WeatherDisplay:10.37,2013-06-05 15:58:00,
2013-06-05 12:03:00,77.7,58.7,29.94,SE,135,0.3,0.0,52,0.00,CLR,SKC,0.00,WeatherDisplay:10.37,2013-06-05 16:03:00,
2013-06-05 12:08:00,78.1,57.9,29.93,ESE,112,0.0,0.0,50,0.00,CLR,SKC,0.00,WeatherDisplay:10.37,2013-06-05 16:08:00,
2013-06-05 12:13:00,78.1,57.4,29.93,NNE,22,0.3,1.1,49,0.00,CLR,SKC,0.00,WeatherDisplay:10.37,2013-06-05 16:13:00,
2013-06-05 12:18:00,78.1,57.4,29.94,East,90,0.2,1.1,49,0.00,CLR,SKC,0.00,WeatherDisplay:10.37,2013-06-05 16:18:00,
2013-06-05 12:23:00,78.6,57.9,29.93,NE,45,0.0,2.3,49,0.00,CLR,SKC,0.00,WeatherDisplay:10.37,2013-06-05 16:23:00,
2013-06-05 12:28:00,79.3,57.9,29.94,ENE,68,0.2,1.1,48,0.00,CLR,SKC,0.00,WeatherDisplay:10.37,2013-06-05 16:28:00,
2013-06-05 12:33:00,79.7,58.3,29.93,ENE,68,1.4,3.5,48,0.00,CLR,SKC,0.00,WeatherDisplay:10.37,2013-06-05 16:33:00,
2013-06-05 12:38:00,79.7,57.7,29.93,SE,135,1.1,2.3,47,0.00,CLR,SKC,0.00,WeatherDisplay:10.37,2013-06-05 16:38:00,
2013-06-05 12:43:00,80.2,59.3,29.92,SE,135,1.3,4.6,49,0.00,CLR,SKC,0.00,WeatherDisplay:10.37,2013-06-05 16:43:00,
2013-06-05 12:48:00,80.4,57.7,29.92,SSE,158,2.7,3.5,46,0.00,CLR,SKC,0.00,WeatherDisplay:10.37,2013-06-05 16:48:00,
2013-06-05 12:53:00,80.4,57.7,29.92,SSE,158,0.7,3.5,46,0.00,CLR,SKC,0.00,WeatherDisplay:10.37,2013-06-05 16:53:00,
2013-06-05 12:58:00,80.2,57.0,29.92,SSE,158,1.0,3.5,45,0.00,CLR,SKC,0.00,WeatherDisplay:10.37,2013-06-05 16:58:00,
2013-06-05 13:03:00,80.2,58.2,29.92,ENE,68,0.6,1.1,47,0.00,CLR,SKC,0.00,WeatherDisplay:10.37,2013-06-05 17:03:00,
2013-06-05 13:08:00,80.4,58.3,29.92,South,180,0.3,1.1,47,0.00,CLR,SKC,0.00,WeatherDisplay:10.37,2013-06-05 17:08:00,
2013-06-05 13:13:00,80.6,59.1,29.91,SE,135,2.7,4.5,48,0.00,CLR,SKC,0.00,WeatherDisplay:10.37,2013-06-05 17:13:00,
2013-06-05 13:18:00,80.8,58.7,29.92,NNE,22,1.8,2.3,47,0.00,CLR,SKC,0.00,WeatherDisplay:10.37,2013-06-05 17:18:00,
2013-06-05 13:23:00,80.4,57.1,29.92,East,90,1.1,2.3,45,0.00,CLR,SKC,0.00,WeatherDisplay:10.37,2013-06-05 17:23:00,
2013-06-05 13:28:00,80.2,57.0,29.91,NE,45,0.0,0.0,45,0.00,CLR,SKC,0.00,WeatherDisplay:10.37,2013-06-05 17:28:00,
2013-06-05 13:33:00,80.1,57.4,29.91,NE,45,0.0,1.1,46,0.00,CLR,SKC,0.00,WeatherDisplay:10.37,2013-06-05 17:33:00,
2013-06-05 13:38:00,80.2,57.0,29.91,ESE,112,0.9,3.5,45,0.00,CLR,SKC,0.00,WeatherDisplay:10.37,2013-06-05 17:38:00,
2013-06-05 13:43:00,80.4,55.9,29.91,SE,135,1.1,3.5,43,0.00,CLR,SKC,0.00,WeatherDisplay:10.37,2013-06-05 17:43:00,
2013-06-05 13:48:00,80.4,57.1,29.91,ENE,68,1.0,2.3,45,0.00,CLR,SKC,0.00,WeatherDisplay:10.37,2013-06-05 17:48:00,
2013-06-05 13:53:00,80.4,55.9,29.91,East,90,1.5,4.6,43,0.00,CLR,SKC,0.00,WeatherDisplay:10.37,2013-06-05 17:53:00,
2013-06-05 13:58:00,80.4,56.5,29.90,SSE,158,0.9,3.5,44,0.00,CLR,SKC,0.00,WeatherDisplay:10.37,2013-06-05 17:58:00,
2013-06-05 14:03:00,80.4,55.2,29.90,ENE,68,1.6,2.3,42,0.00,CLR,SKC,0.00,WeatherDisplay:10.37,2013-06-05 18:03:00,
2013-06-05 14:08:00,80.2,55.1,29.90,ENE,68,1.2,5.8,42,0.00,CLR,SKC,0.00,WeatherDisplay:10.37,2013-06-05 18:08:00,
2013-06-05 14:13:00,80.2,55.1,29.89,East,90,0.0,0.0,42,0.00,CLR,SKC,0.00,WeatherDisplay:10.37,2013-06-05 18:13:00,
2013-06-05 14:18:00,80.2,55.1,29.90,SSE,158,2.3,3.5,42,0.00,CLR,SKC,0.00,WeatherDisplay:10.37,2013-06-05 18:18:00,
2013-06-05 14:23:00,80.4,55.9,29.90,South,180,2.7,4.6,43,0.00,CLR,SKC,0.00,WeatherDisplay:10.37,2013-06-05 18:23:00,
2013-06-05 14:28:00,80.4,55.2,29.90,East,90,1.1,2.3,42,0.00,CLR,SKC,0.00,WeatherDisplay:10.37,2013-06-05 18:28:00,
2013-06-05 14:33:00,80.4,55.2,29.89,East,90,0.0,3.5,42,0.00,CLR,SKC,0.00,WeatherDisplay:10.37,2013-06-05 18:33:00,
2013-06-05 14:38:00,80.4,55.9,29.89,SE,135,0.4,2.3,43,0.00,CLR,SKC,0.00,WeatherDisplay:10.37,2013-06-05 18:38:00,
2013-06-05 14:43:00,80.8,56.2,29.89,ENE,68,0.5,2.3,43,0.00,CLR,SKC,0.00,WeatherDisplay:10.37,2013-06-05 18:43:00,
2013-06-05 14:48:00,80.8,56.2,29.88,SSE,158,0.0,0.0,43,0.00,CLR,SKC,0.00,WeatherDisplay:10.37,2013-06-05 18:48:00,
2013-06-05 14:53:00,81.0,55.7,29.88,SW,225,0.1,0.7,42,0.00,CLR,SKC,0.00,WeatherDisplay:10.37,2013-06-05 18:53:00,
2013-06-05 14:58:00,81.0,56.4,29.87,NE,45,0.0,0.0,43,0.00,CLR,SKC,0.00,WeatherDisplay:10.37,2013-06-05 18:58:00,
2013-06-05 15:03:00,81.1,56.5,29.87,ENE,68,1.5,3.5,43,0.00,CLR,SKC,0.00,WeatherDisplay:10.37,2013-06-05 19:03:00,
2013-06-05 15:08:00,81.1,55.9,29.88,SSE,158,0.2,0.0,42,0.00,CLR,SKC,0.00,WeatherDisplay:10.37,2013-06-05 19:08:00,
2013-06-05 15:13:00,81.1,56.5,29.87,East,90,0.7,2.3,43,0.00,CLR,SKC,0.00,WeatherDisplay:10.37,2013-06-05 19:13:00,
2013-06-05 15:18:00,81.5,56.2,29.87,SSE,158,0.0,3.5,42,0.00,CLR,SKC,0.00,WeatherDisplay:10.37,2013-06-05 19:18:00,
2013-06-05 15:23:00,81.3,56.0,29.87,ENE,68,0.8,0.0,42,0.00,CLR,SKC,0.00,WeatherDisplay:10.37,2013-06-05 19:23:00,
2013-06-05 15:28:00,81.1,56.5,29.87,SSE,158,0.1,2.3,43,0.00,CLR,SKC,0.00,WeatherDisplay:10.37,2013-06-05 19:28:00,
2013-06-05 15:33:00,81.1,55.9,29.86,NE,45,0.5,1.8,42,0.00,CLR,SKC,0.00,WeatherDisplay:10.37,2013-06-05 19:33:00,
2013-06-05 15:38:00,81.3,56.0,29.87,NE,45,0.0,2.3,42,0.00,CLR,SKC,0.00,WeatherDisplay:10.37,2013-06-05 19:38:00,
2013-06-05 15:43:00,81.5,54.8,29.86,East,90,0.0,2.3,40,0.00,CLR,SKC,0.00,WeatherDisplay:10.37,2013-06-05 19:43:00,
2013-06-05 15:48:00,81.7,55.7,29.86,NNE,22,0.0,1.1,41,0.00,CLR,SKC,0.00,WeatherDisplay:10.37,2013-06-05 19:48:00,
2013-06-05 15:53:00,81.5,55.5,29.86,NE,45,0.4,3.1,41,0.00,CLR,SKC,0.00,WeatherDisplay:10.37,2013-06-05 19:53:00,
2013-06-05 15:58:00,81.5,55.5,29.86,ENE,68,0.4,2.3,41,0.00,CLR,SKC,0.00,WeatherDisplay:10.37,2013-06-05 19:58:00,
2013-06-05 16:03:00,81.5,55.5,29.85,ENE,68,0.0,0.0,41,0.00,CLR,SKC,0.00,WeatherDisplay:10.37,2013-06-05 20:03:00,
2013-06-05 16:08:00,81.5,56.2,29.85,ESE,112,0.0,0.0,42,0.00,CLR,SKC,0.00,WeatherDisplay:10.37,2013-06-05 20:08:00,
2013-06-05 16:13:00,81.5,56.2,29.85,SSE,158,0.8,1.1,42,0.00,CLR,SKC,0.00,WeatherDisplay:10.37,2013-06-05 20:13:00,
2013-06-05 16:18:00,81.7,57.0,29.84,ENE,68,0.4,0.0,43,0.00,CLR,SKC,0.00,WeatherDisplay:10.37,2013-06-05 20:18:00,
2013-06-05 16:23:00,82.0,56.0,29.84,SSE,158,0.3,3.5,41,0.00,CLR,SKC,0.00,WeatherDisplay:10.37,2013-06-05 20:23:00,
2013-06-05 16:28:00,82.2,56.2,29.84,NE,45,0.3,0.0,41,0.00,CLR,SKC,0.00,WeatherDisplay:10.37,2013-06-05 20:28:00,
2013-06-05 16:33:00,81.9,55.9,29.84,SSE,158,0.6,2.9,41,0.00,CLR,SKC,0.00,WeatherDisplay:10.37,2013-06-05 20:33:00,
2013-06-05 16:38:00,81.3,55.4,29.83,ESE,112,1.9,3.1,41,0.00,CLR,SKC,0.00,WeatherDisplay:10.37,2013-06-05 20:38:00,
2013-06-05 16:43:00,81.1,55.2,29.83,SE,135,1.7,3.5,41,0.00,CLR,SKC,0.00,WeatherDisplay:10.37,2013-06-05 20:43:00,
2013-06-05 16:48:00,81.3,56.0,29.83,NE,45,2.4,3.8,42,0.00,CLR,SKC,0.00,WeatherDisplay:10.37,2013-06-05 20:48:00,
2013-06-05 16:53:00,81.7,55.7,29.83,ESE,112,0.0,0.0,41,0.00,CLR,SKC,0.00,WeatherDisplay:10.37,2013-06-05 20:53:00,
2013-06-05 16:58:00,82.0,56.0,29.82,ESE,112,0.3,0.0,41,0.00,CLR,SKC,0.00,WeatherDisplay:10.37,2013-06-05 20:58:00,
2013-06-05 17:03:00,82.2,55.5,29.83,ESE,112,2.2,5.8,40,0.00,CLR,SKC,0.00,WeatherDisplay:10.37,2013-06-05 21:03:00,
2013-06-05 17:08:00,82.0,55.3,29.82,SSE,158,2.7,4.2,40,0.00,CLR,SKC,0.00,WeatherDisplay:10.37,2013-06-05 21:08:00,
2013-06-05 17:13:00,81.7,55.7,29.82,SE,135,0.3,2.3,41,0.00,CLR,SKC,0.00,WeatherDisplay:10.37,2013-06-05 21:13:00,
2013-06-05 17:18:00,81.7,55.0,29.82,North,0,0.1,1.1,40,0.00,CLR,SKC,0.00,WeatherDisplay:10.37,2013-06-05 21:18:00,
2013-06-05 17:23:00,81.7,55.0,29.82,West,270,0.1,2.3,40,0.00,CLR,SKC,0.00,WeatherDisplay:10.37,2013-06-05 21:23:00,
2013-06-05 17:28:00,81.7,55.0,29.82,ENE,68,0.5,3.5,40,0.00,CLR,SKC,0.00,WeatherDisplay:10.37,2013-06-05 21:28:00,
2013-06-05 17:33:00,81.7,55.0,29.82,NE,45,0.6,3.6,40,0.00,CLR,SKC,0.00,WeatherDisplay:10.37,2013-06-05 21:33:00,
2013-06-05 17:38:00,81.3,54.7,29.82,SSE,158,0.3,3.5,40,0.00,CLR,SKC,0.00,WeatherDisplay:10.37,2013-06-05 21:38:00,
2013-06-05 17:43:00,81.0,55.0,29.82,SE,135,0.0,2.3,41,0.00,CLR,SKC,0.00,WeatherDisplay:10.37,2013-06-05 21:43:00,
2013-06-05 17:48:00,80.4,54.6,29.82,SSE,158,1.7,2.9,41,0.00,CLR,SKC,0.00,WeatherDisplay:10.37,2013-06-05 21:48:00,
2013-06-05 17:53:00,79.7,54.6,29.82,ESE,112,0.0,0.0,42,0.00,CLR,SKC,0.00,WeatherDisplay:10.37,2013-06-05 21:53:00,
2013-06-05 17:58:00,79.9,54.7,29.82,ESE,112,0.0,0.0,42,0.00,CLR,SKC,0.00,WeatherDisplay:10.37,2013-06-05 21:58:00,
2013-06-05 18:03:00,80.2,55.1,29.80,ENE,68,0.0,0.0,42,0.00,CLR,SKC,0.00,WeatherDisplay:10.37,2013-06-05 22:03:00,
2013-06-05 18:08:00,80.6,55.4,29.80,ENE,68,0.1,0.0,42,0.00,CLR,SKC,0.00,WeatherDisplay:10.37,2013-06-05 22:08:00,
2013-06-05 18:13:00,80.8,54.9,29.80,North,0,0.0,0.0,41,0.00,CLR,SKC,0.00,WeatherDisplay:10.37,2013-06-05 22:13:00,
2013-06-05 18:18:00,80.8,54.9,29.80,ENE,68,0.0,0.0,41,0.00,CLR,SKC,0.00,WeatherDisplay:10.37,2013-06-05 22:18:00,
2013-06-05 18:23:00,80.6,54.7,29.80,ENE,68,0.0,0.0,41,0.00,CLR,SKC,0.00,WeatherDisplay:10.37,2013-06-05 22:23:00,
2013-06-05 18:28:00,80.4,54.6,29.80,ESE,112,0.2,0.0,41,0.00,CLR,SKC,0.00,WeatherDisplay:10.37,2013-06-05 22:28:00,
2013-06-05 18:33:00,79.9,55.4,29.81,SSE,158,0.3,1.1,43,0.00,CLR,SKC,0.00,WeatherDisplay:10.37,2013-06-05 22:33:00,
2013-06-05 18:38:00,80.1,54.9,29.80,SE,135,0.4,4.6,42,0.00,CLR,SKC,0.00,WeatherDisplay:10.37,2013-06-05 22:38:00,
2013-06-05 18:43:00,80.2,55.1,29.80,NE,45,0.7,2.3,42,0.00,CLR,SKC,0.00,WeatherDisplay:10.37,2013-06-05 22:43:00,
2013-06-05 18:48:00,80.2,54.4,29.80,East,90,0.0,3.5,41,0.00,CLR,SKC,0.00,WeatherDisplay:10.37,2013-06-05 22:48:00,
2013-06-05 18:53:00,79.9,54.7,29.80,NE,45,0.4,3.5,42,0.00,CLR,SKC,0.00,WeatherDisplay:10.37,2013-06-05 22:53:00,
2013-06-05 18:58:00,79.9,54.7,29.80,SE,135,0.0,0.0,42,0.00,CLR,SKC,0.00,WeatherDisplay:10.37,2013-06-05 22:58:00,
2013-06-05 19:03:00,79.9,54.7,29.80,SSE,158,1.1,2.2,42,0.00,CLR,SKC,0.00,WeatherDisplay:10.37,2013-06-05 23:03:00,
2013-06-05 19:08:00,79.7,54.6,29.80,SE,135,0.0,0.0,42,0.00,CLR,SKC,0.00,WeatherDisplay:10.37,2013-06-05 23:08:00,
2013-06-05 19:13:00,79.5,55.1,29.79,East,90,0.0,0.0,43,0.00,CLR,SKC,0.00,WeatherDisplay:10.37,2013-06-05 23:13:00,
2013-06-05 19:18:00,79.2,54.7,29.79,NE,45,0.0,0.0,43,0.00,CLR,SKC,0.00,WeatherDisplay:10.37,2013-06-05 23:18:00,
2013-06-05 19:23:00,79.0,55.2,29.79,NE,45,0.0,0.0,44,0.00,CLR,SKC,0.00,WeatherDisplay:10.37,2013-06-05 23:23:00,
2013-06-05 19:28:00,78.6,54.9,29.79,ESE,112,0.0,0.0,44,0.00,CLR,SKC,0.00,WeatherDisplay:10.37,2013-06-05 23:28:00,
2013-06-05 19:33:00,78.4,55.3,29.79,NE,45,0.0,0.0,45,0.00,CLR,SKC,0.00,WeatherDisplay:10.37,2013-06-05 23:33:00,
2013-06-05 19:38:00,78.1,55.0,29.79,ENE,68,0.0,0.0,45,0.00,CLR,SKC,0.00,WeatherDisplay:10.37,2013-06-05 23:38:00,
2013-06-05 19:43:00,77.9,54.8,29.78,NNE,22,0.0,2.3,45,0.00,CLR,SKC,0.00,WeatherDisplay:10.37,2013-06-05 23:43:00,
2013-06-05 19:48:00,77.7,55.3,29.79,ENE,68,0.0,2.3,46,0.00,CLR,SKC,0.00,WeatherDisplay:10.37,2013-06-05 23:48:00,
2013-06-05 19:53:00,77.5,55.7,29.78,NE,45,0.0,2.3,47,0.00,CLR,SKC,0.00,WeatherDisplay:10.37,2013-06-05 23:53:00,
2013-06-05 19:58:00,77.2,55.4,29.79,ESE,112,0.0,0.0,47,0.00,CLR,SKC,0.00,WeatherDisplay:10.37,2013-06-05 23:58:00,
2013-06-05 20:03:00,76.8,55.1,29.78,ENE,68,0.0,1.1,47,0.00,CLR,SKC,0.00,WeatherDisplay:10.37,2013-06-06 00:03:00,
2013-06-05 20:08:00,76.6,54.9,29.79,SSE,158,0.0,0.0,47,0.00,CLR,SKC,0.00,WeatherDisplay:10.37,2013-06-06 00:08:00,
2013-06-05 20:13:00,76.3,55.1,29.79,NE,45,0.0,0.0,48,0.00,CLR,SKC,0.00,WeatherDisplay:10.37,2013-06-06 00:13:00,
2013-06-05 20:18:00,75.9,54.8,29.79,ENE,68,0.0,0.0,48,0.00,CLR,SKC,0.00,WeatherDisplay:10.37,2013-06-06 00:18:00,
2013-06-05 20:23:00,75.7,55.2,29.79,NE,45,0.0,0.0,49,0.00,CLR,SKC,0.00,WeatherDisplay:10.37,2013-06-06 00:23:00,
2013-06-05 20:28:00,75.4,54.9,29.79,NE,45,0.0,0.0,49,0.00,CLR,SKC,0.00,WeatherDisplay:10.37,2013-06-06 00:28:00,
2013-06-05 20:33:00,74.8,54.4,29.79,NE,45,0.0,0.0,49,0.00,CLR,SKC,0.00,WeatherDisplay:10.37,2013-06-06 00:33:00,
2013-06-05 20:38:00,74.5,54.6,29.79,NE,45,0.0,0.0,50,0.00,CLR,SKC,0.00,WeatherDisplay:10.37,2013-06-06 00:38:00,
2013-06-05 20:43:00,73.9,54.1,29.79,NE,45,0.0,0.0,50,0.00,CLR,SKC,0.00,WeatherDisplay:10.37,2013-06-06 00:43:00,
2013-06-05 20:48:00,73.4,54.2,29.79,NE,45,0.0,0.0,51,0.00,CLR,SKC,0.00,WeatherDisplay:10.37,2013-06-06 00:48:00,
2013-06-05 20:53:00,73.0,53.8,29.79,NE,45,0.0,0.0,51,0.00,CLR,SKC,0.00,WeatherDisplay:10.37,2013-06-06 00:53:00,
2013-06-05 20:58:00,72.5,53.9,29.79,NE,45,0.0,0.0,52,0.00,CLR,SKC,0.00,WeatherDisplay:10.37,2013-06-06 00:58:00,
2013-06-05 21:03:00,72.1,53.5,29.79,NE,45,0.0,0.0,52,0.00,CLR,SKC,0.00,WeatherDisplay:10.37,2013-06-06 01:03:00,
2013-06-05 21:08:00,71.8,54.2,29.79,NE,45,0.0,0.0,54,0.00,CLR,SKC,0.00,WeatherDisplay:10.37,2013-06-06 01:08:00,
2013-06-05 21:13:00,71.4,54.4,29.79,NE,45,0.0,0.0,55,0.00,CLR,SKC,0.00,WeatherDisplay:10.37,2013-06-06 01:13:00,
2013-06-05 21:18:00,71.4,54.4,29.79,NE,45,0.0,0.0,55,0.00,CLR,SKC,0.00,WeatherDisplay:10.37,2013-06-06 01:18:00,
2013-06-05 21:23:00,71.2,54.2,29.80,NE,45,0.0,0.0,55,0.00,CLR,SKC,0.00,WeatherDisplay:10.37,2013-06-06 01:23:00,
2013-06-05 21:28:00,70.9,54.4,29.79,NE,45,0.0,0.0,56,0.00,CLR,SKC,0.00,WeatherDisplay:10.37,2013-06-06 01:28:00,
2013-06-05 21:33:00,70.9,54.4,29.79,NE,45,0.0,0.0,56,0.00,CLR,SKC,0.00,WeatherDisplay:10.37,2013-06-06 01:33:00,
2013-06-05 21:38:00,70.7,54.2,29.79,NE,45,0.1,0.0,56,0.00,CLR,SKC,0.00,WeatherDisplay:10.37,2013-06-06 01:38:00,
2013-06-05 21:43:00,70.5,54.5,29.79,NE,45,0.0,0.0,57,0.00,CLR,SKC,0.00,WeatherDisplay:10.37,2013-06-06 01:43:00,
2013-06-05 21:48:00,70.2,54.2,29.79,NE,45,0.0,1.1,57,0.00,CLR,SKC,0.00,WeatherDisplay:10.37,2013-06-06 01:48:00,
2013-06-05 21:53:00,70.0,54.0,29.79,NE,45,0.0,0.0,57,0.00,CLR,SKC,0.00,WeatherDisplay:10.37,2013-06-06 01:53:00,
2013-06-05 21:58:00,69.8,53.9,29.79,NE,45,0.0,0.0,57,0.00,CLR,SKC,0.00,WeatherDisplay:10.37,2013-06-06 01:58:00,
2013-06-05 22:03:00,69.6,54.2,29.79,NE,45,0.0,0.0,58,0.00,CLR,SKC,0.00,WeatherDisplay:10.37,2013-06-06 02:03:00,
2013-06-05 22:08:00,69.6,54.2,29.79,NE,45,0.0,0.0,58,0.00,CLR,SKC,0.00,WeatherDisplay:10.37,2013-06-06 02:08:00,
2013-06-05 22:13:00,69.6,54.2,29.79,NE,45,0.0,0.0,58,0.00,CLR,SKC,0.00,WeatherDisplay:10.37,2013-06-06 02:13:00,
2013-06-05 22:18:00,69.4,54.0,29.79,NE,45,0.0,0.0,58,0.00,CLR,SKC,0.00,WeatherDisplay:10.37,2013-06-06 02:18:00,
2013-06-05 22:23:00,69.3,54.3,29.79,ENE,68,0.0,0.0,59,0.00,CLR,SKC,0.00,WeatherDisplay:10.37,2013-06-06 02:23:00,
2013-06-05 22:28:00,69.1,54.1,29.79,NE,45,0.0,0.0,59,0.00,CLR,SKC,0.00,WeatherDisplay:10.37,2013-06-06 02:28:00,
2013-06-05 22:33:00,69.1,54.1,29.80,ENE,68,0.0,0.0,59,0.00,CLR,SKC,0.00,WeatherDisplay:10.37,2013-06-06 02:33:00,
2013-06-05 22:38:00,69.1,54.1,29.80,NE,45,0.0,0.0,59,0.00,CLR,SKC,0.00,WeatherDisplay:10.37,2013-06-06 02:38:00,
2013-06-05 22:43:00,68.7,53.8,29.80,NE,45,0.0,0.0,59,0.00,CLR,SKC,0.00,WeatherDisplay:10.37,2013-06-06 02:43:00,
2013-06-05 22:48:00,68.7,54.3,29.80,NE,45,0.0,0.0,60,0.00,CLR,SKC,0.00,WeatherDisplay:10.37,2013-06-06 02:48:00,
2013-06-05 22:53:00,68.7,54.3,29.80,NE,45,0.0,0.0,60,0.00,CLR,SKC,0.00,WeatherDisplay:10.37,2013-06-06 02:53:00,
2013-06-05 22:58:00,68.5,54.1,29.80,NE,45,0.0,0.0,60,0.00,CLR,SKC,0.00,WeatherDisplay:10.37,2013-06-06 02:58:00,
2013-06-05 23:03:00,68.4,54.4,29.80,NE,45,0.0,0.0,61,0.00,CLR,SKC,0.00,WeatherDisplay:10.37,2013-06-06 03:03:00,
2013-06-05 23:08:00,68.2,54.2,29.80,NE,45,0.0,0.0,61,0.00,CLR,SKC,0.00,WeatherDisplay:10.37,2013-06-06 03:08:00,
2013-06-05 23:13:00,68.0,54.0,29.80,NE,45,0.2,0.0,61,0.00,CLR,SKC,0.00,WeatherDisplay:10.37,2013-06-06 03:13:00,
2013-06-05 23:18:00,67.8,54.3,29.80,ENE,68,0.0,0.0,62,0.00,CLR,SKC,0.00,WeatherDisplay:10.37,2013-06-06 03:18:00,
2013-06-05 23:23:00,67.6,54.2,29.80,NE,45,0.3,1.1,62,0.00,CLR,SKC,0.00,WeatherDisplay:10.37,2013-06-06 03:23:00,
2013-06-05 23:28:00,67.3,54.3,29.79,NE,45,0.0,0.0,63,0.00,CLR,SKC,0.00,WeatherDisplay:10.37,2013-06-06 03:28:00,
2013-06-05 23:33:00,67.3,54.3,29.79,ENE,68,0.0,0.0,63,0.00,CLR,SKC,0.00,WeatherDisplay:10.37,2013-06-06 03:33:00,
2013-06-05 23:38:00,67.1,54.1,29.79,ENE,68,0.0,0.0,63,0.00,CLR,SKC,0.00,WeatherDisplay:10.37,2013-06-06 03:38:00,
2013-06-05 23:43:00,67.1,54.1,29.79,NE,45,0.0,0.0,63,0.00,CLR,SKC,0.00,WeatherDisplay:10.37,2013-06-06 03:43:00,
2013-06-05 23:48:00,66.9,53.9,29.79,NE,45,0.4,0.0,63,0.00,CLR,SKC,0.00,WeatherDisplay:10.37,2013-06-06 03:48:00,
2013-06-05 23:53:00,66.9,54.3,29.79,ESE,112,0.0,0.0,64,0.00,CLR,SKC,0.00,WeatherDisplay:10.37,2013-06-06 03:53:00,
2013-06-05 23:58:00,66.9,54.3,29.79,ESE,112,0.0,0.0,64,0.00,CLR,SKC,0.00,WeatherDisplay:10.37,2013-06-06 03:58:00,